Time;durP1;ratioP1;P1;durP2;ratioP2;P2;SDS_P1;SDS_P2;PMS_P1;PMS_P2;Temp;Humidity;BMP_temperature;BMP_pressure;BME280_temperature;BME280_humidity;BME280_pressure;Samples;Min_cycle;Max_cycle;Signal;HPM_P1;HPM_P2
2022/06/09 00:01:41;;;;;;;;;;;;;;;13.66;99.96;100734.69;5050656;28;19974;-77
2022/06/09 00:04:12;;;;;;;;;;;;;;;13.72;100.00;100733.91;5052714;28;19920;-77
2022/06/09 00:06:57;;;;;;;;;;;;;;;13.77;99.92;100736.81;5055589;28;19927;-79
2022/06/09 00:09:22;;;;;;;;;;;;;;;13.79;99.83;100742.84;5056619;28;19921;-77
2022/06/09 00:11:49;;;;;;;;;;;;;;;13.82;99.71;100755.13;5057226;28;19920;-78
2022/06/09 00:14:14;;;;;;;;;;;;;;;13.84;99.60;100748.47;5056175;28;19920;-78
2022/06/09 00:16:39;;;;;;;;;;;;;;;13.86;99.26;100750.16;5056550;28;20391;-76
2022/06/09 00:19:05;;;;;;;;;;;;;;;13.81;98.74;100745.34;5054541;28;19967;-77
2022/06/09 00:21:30;;;;;;;;;;;;;;;13.81;98.17;100753.47;5054998;28;20487;-75
2022/06/09 00:23:56;;;;;;;;;;;;;;;13.80;97.96;100758.06;5054565;28;19929;-77
2022/06/09 00:26:21;;;;;;;;;;;;;;;13.82;97.79;100758.69;5054778;28;19921;-77
2022/06/09 00:28:46;;;;;;;;;;;;;;;13.80;97.60;100757.22;5054803;28;19928;-76
2022/06/09 00:31:11;;;;;;;;;;;;;;;13.78;97.33;100748.47;5054419;28;19917;-75
2022/06/09 00:33:37;;;;;;;;;;;;;;;13.78;97.24;100754.72;5053986;28;20334;-78
2022/06/09 00:36:02;;;;;;;;;;;;;;;13.76;96.89;100762.19;5052912;28;19950;-79
2022/06/09 00:38:27;;;;;;;;;;;;;;;13.78;96.78;100762.00;5054645;28;19923;-77
2022/06/09 00:40:56;;;;;;;;;;;;;;;13.76;96.86;100756.78;5054262;28;19967;-76
2022/06/09 00:43:21;;;;;;;;;;;;;;;13.76;96.76;100756.78;5054581;28;19923;-77
2022/06/09 00:45:50;;;;;;;;;;;;;;;13.75;96.64;100760.53;5053365;28;19921;-76
2022/06/09 00:48:15;;;;;;;;;;;;;;;13.76;96.86;100759.47;5055187;28;19921;-77
2022/06/09 00:50:40;;;;;;;;;;;;;;;13.77;96.82;100771.13;5054536;28;19927;-76
2022/06/09 00:53:07;;;;;;;;;;;;;;;13.77;96.89;100774.69;5054136;28;19979;-78
2022/06/09 00:55:32;;;;;;;;;;;;;;;13.76;96.96;100762.19;5053417;28;20019;-78
2022/06/09 00:57:58;;;;;;;;;;;;;;;13.75;97.07;100774.06;5055141;28;19987;-78
2022/06/09 01:00:25;;;;;;;;;;;;;;;13.76;96.93;100778.41;5053522;28;20415;-77
2022/06/09 01:02:51;;;;;;;;;;;;;;;13.77;97.22;100769.28;5053151;28;20451;-78
2022/06/09 01:05:17;;;;;;;;;;;;;;;13.75;97.26;100774.06;5054727;28;19964;-79
2022/06/09 01:07:46;;;;;;;;;;;;;;;13.76;97.12;100775.72;5054444;28;19960;-79
2022/06/09 01:10:12;;;;;;;;;;;;;;;13.75;97.22;100781.34;5055439;28;20365;-79
2022/06/09 01:12:38;;;;;;;;;;;;;;;13.72;97.26;100782.59;5057025;28;19991;-77
2022/06/09 01:15:05;;;;;;;;;;;;;;;13.70;97.21;100783.81;5058364;28;19966;-78
2022/06/09 01:17:38;;;;;;;;;;;;;;;13.67;97.35;100787.78;5055782;28;19921;-78
2022/06/09 01:20:04;;;;;;;;;;;;;;;13.65;97.16;100786.31;5052611;28;19943;-78
2022/06/09 01:22:34;;;;;;;;;;;;;;;13.62;97.09;100798.38;5055230;28;20414;-77
2022/06/09 01:25:14;;;;;;;;;;;;;;;13.62;96.87;100798.38;5053819;28;19994;-78
2022/06/09 01:27:52;;;;;;;;;;;;;;;13.60;96.87;100806.66;5053594;28;19925;-78
2022/06/09 01:30:21;;;;;;;;;;;;;;;13.59;96.88;100813.13;5053639;28;19921;-77
2022/06/09 01:32:57;;;;;;;;;;;;;;;13.59;97.00;100815.00;5053146;28;19927;-77
2022/06/09 01:35:29;;;;;;;;;;;;;;;13.58;97.23;100824.97;5034806;28;19920;-76
2022/06/09 01:37:55;;;;;;;;;;;;;;;13.57;97.24;100812.47;5053218;28;19921;-78
2022/06/09 01:40:20;;;;;;;;;;;;;;;13.58;97.29;100813.31;5051909;28;19974;-78
2022/06/09 01:42:47;;;;;;;;;;;;;;;13.57;97.37;100807.06;5051934;28;19974;-79
2022/06/09 01:45:19;;;;;;;;;;;;;;;13.60;97.33;100811.25;5052710;28;19928;-78
2022/06/09 01:48:00;;;;;;;;;;;;;;;13.58;97.19;100813.31;5051995;28;19920;-77
2022/06/09 01:50:43;;;;;;;;;;;;;;;13.59;97.13;100809.59;5052955;28;19977;-79
2022/06/09 01:53:10;;;;;;;;;;;;;;;13.57;96.93;100809.78;5033427;28;19956;-78
2022/06/09 01:55:37;;;;;;;;;;;;;;;13.56;96.68;100813.53;5052769;28;19921;-78
2022/06/09 01:58:02;;;;;;;;;;;;;;;13.58;96.61;100807.91;5050412;28;19921;-79
2022/06/09 02:00:28;;;;;;;;;;;;;;;13.58;96.35;100811.44;5058837;28;19982;-78
2022/06/09 02:02:55;;;;;;;;;;;;;;;13.58;96.30;100816.00;5045768;28;19965;-78
2022/06/09 02:05:24;;;;;;;;;;;;;;;13.58;96.15;100816.00;5036328;28;20033;-78
2022/06/09 02:07:50;;;;;;;;;;;;;;;13.57;96.08;100817.91;5051606;28;19916;-78
2022/06/09 02:10:17;;;;;;;;;;;;;;;13.57;96.12;100823.31;5051653;28;20032;-79
2022/06/09 02:12:42;;;;;;;;;;;;;;;13.58;96.41;100824.13;5052859;28;19930;-77
2022/06/09 02:15:08;;;;;;;;;;;;;;;13.60;96.54;100822.06;5052574;28;19924;-78
2022/06/09 02:17:44;;;;;;;;;;;;;;;13.60;96.51;100828.31;5053361;28;20299;-79
2022/06/09 02:20:09;;;;;;;;;;;;;;;13.64;96.26;100828.75;5052206;28;20011;-77
2022/06/09 02:22:34;;;;;;;;;;;;;;;13.65;96.24;100835.81;5052508;28;20015;-77
2022/06/09 02:25:00;;;;;;;;;;;;;;;13.66;95.98;100826.66;5051900;28;20381;-77
2022/06/09 02:27:25;;;;;;;;;;;;;;;13.70;95.56;100832.50;5052096;28;19975;-76
2022/06/09 02:29:50;;;;;;;;;;;;;;;13.72;94.94;100838.56;5052520;28;19928;-78
2022/06/09 02:32:17;;;;;;;;;;;;;;;13.73;94.85;100838.34;5052770;28;19921;-78
2022/06/09 02:34:42;;;;;;;;;;;;;;;13.74;94.26;100840.00;5123450;23;19992;-35
2022/06/09 02:37:07;;;;;;;;;;;;;;;13.77;93.72;100846.88;5075370;28;19920;-32
2022/06/09 02:39:32;;;;;;;;;;;;;;;13.81;93.31;100845.44;5074992;28;19968;-33
2022/06/09 02:41:57;;;;;;;;;;;;;;;13.86;93.03;100859.19;5074964;28;19920;-33
2022/06/09 02:44:23;;;;;;;;;;;;;;;13.91;92.62;100858.59;5075435;28;19923;-34
2022/06/09 02:46:48;;;;;;;;;;;;;;;13.97;92.23;100855.06;5075288;28;19913;-31
2022/06/09 02:49:14;;;;;;;;;;;;;;;14.00;91.72;100863.59;5075115;28;19925;-32
2022/06/09 02:51:40;;;;;;;;;;;;;;;14.04;91.34;100866.75;5075039;28;19935;-32
2022/06/09 02:54:08;;;;;;;;;;;;;;;14.07;91.03;100870.91;5074937;28;20157;-32
2022/06/09 02:56:33;;;;;;;;;;;;;;;14.08;90.89;100873.41;5074798;28;19967;-32
2022/06/09 02:58:59;;;;;;;;;;;;;;;14.07;90.77;100870.91;5074525;28;19925;-34
2022/06/09 03:01:25;;;;;;;;;;;;;;;14.07;90.57;100874.44;5073067;28;19920;-34
2022/06/09 03:03:50;;;;;;;;;;;;;;;14.06;90.74;100870.09;5073924;28;19992;-33
2022/06/09 03:06:15;;;;;;;;;;;;;;;14.02;90.56;100874.22;5074779;28;19913;-33
2022/06/09 03:08:40;;;;;;;;;;;;;;;14.01;90.51;100877.97;5075735;28;19955;-32
2022/06/09 03:11:06;;;;;;;;;;;;;;;14.00;90.19;100887.13;5074745;28;19994;-33
2022/06/09 03:13:31;;;;;;;;;;;;;;;13.95;90.41;100879.59;5073626;28;19921;-33
2022/06/09 03:15:57;;;;;;;;;;;;;;;13.94;90.56;100887.94;5074366;28;19912;-33
2022/06/09 03:18:22;;;;;;;;;;;;;;;13.89;90.39;100895.84;5074327;28;19925;-32
2022/06/09 03:20:47;;;;;;;;;;;;;;;13.88;89.83;100899.59;5073593;28;19923;-33
2022/06/09 03:23:12;;;;;;;;;;;;;;;13.88;89.93;100905.81;5074458;28;19908;-31
2022/06/09 03:25:38;;;;;;;;;;;;;;;13.88;89.72;100910.41;5074436;28;19931;-33
2022/06/09 03:28:04;;;;;;;;;;;;;;;13.90;89.89;100913.72;5073950;28;19982;-33
2022/06/09 03:30:29;;;;;;;;;;;;;;;13.93;89.99;100913.31;5071933;28;19920;-33
2022/06/09 03:32:54;;;;;;;;;;;;;;;13.95;90.18;100917.47;5073506;28;20848;-32
2022/06/09 03:35:19;;;;;;;;;;;;;;;13.96;90.17;100930.00;5073611;28;19921;-33
2022/06/09 03:37:45;;;;;;;;;;;;;;;13.97;90.34;100920.00;5073906;28;19981;-33
2022/06/09 03:40:12;;;;;;;;;;;;;;;13.99;90.27;100935.00;5076801;28;19908;-33
2022/06/09 03:42:37;;;;;;;;;;;;;;;14.04;90.47;100937.09;5078083;28;19920;-33
2022/06/09 03:45:02;;;;;;;;;;;;;;;14.06;90.30;100945.88;5078557;28;19920;-33
2022/06/09 03:47:28;;;;;;;;;;;;;;;14.10;90.05;100946.28;5078445;28;19936;-34
2022/06/09 03:49:53;;;;;;;;;;;;;;;14.13;90.30;100952.13;5078215;28;19942;-31
2022/06/09 03:52:18;;;;;;;;;;;;;;;14.17;90.07;100960.69;5078452;28;19920;-32
2022/06/09 03:54:43;;;;;;;;;;;;;;;14.21;89.90;100953.81;5078024;28;19935;-33
2022/06/09 03:57:09;;;;;;;;;;;;;;;14.25;89.92;100955.91;5077975;28;19932;-32
2022/06/09 03:59:34;;;;;;;;;;;;;;;14.27;89.46;100953.84;5075885;28;19908;-33
2022/06/09 04:01:59;;;;;;;;;;;;;;;14.32;89.50;100955.09;5064421;28;19932;-34
2022/06/09 04:04:24;;;;;;;;;;;;;;;14.34;89.18;100958.44;5073667;28;20008;-31
2022/06/09 04:06:50;;;;;;;;;;;;;;;14.39;89.26;100973.03;5076302;28;19929;-33
2022/06/09 04:09:15;;;;;;;;;;;;;;;14.42;89.16;100975.31;5075617;28;19963;-32
2022/06/09 04:11:41;;;;;;;;;;;;;;;14.47;89.30;100975.53;5074888;28;19908;-32
2022/06/09 04:14:06;;;;;;;;;;;;;;;14.42;89.09;100974.50;5074375;28;19925;-32
2022/06/09 04:16:36;;;;;;;;;;;;;;;14.43;88.96;100989.72;5075190;28;19932;-32
2022/06/09 04:19:02;;;;;;;;;;;;;;;14.40;88.93;100990.97;5075246;28;19909;-33
2022/06/09 04:21:28;;;;;;;;;;;;;;;14.44;89.14;100994.91;5074906;28;20018;-34
2022/06/09 04:23:53;;;;;;;;;;;;;;;14.42;89.00;100996.16;5075512;28;19925;-32
2022/06/09 04:26:20;;;;;;;;;;;;;;;14.43;88.92;100995.97;5075059;28;19935;-34
2022/06/09 04:28:45;;;;;;;;;;;;;;;14.43;88.92;101005.97;5075075;28;19949;-33
2022/06/09 04:31:10;;;;;;;;;;;;;;;14.43;89.22;101001.38;5074594;28;20389;-33
2022/06/09 04:33:36;;;;;;;;;;;;;;;14.44;89.43;101002.22;5074890;28;19924;-33
2022/06/09 04:36:01;;;;;;;;;;;;;;;14.44;89.74;101008.44;5075404;28;19929;-33
2022/06/09 04:38:26;;;;;;;;;;;;;;;14.45;89.77;101014.69;5075277;28;19912;-33
2022/06/09 04:40:51;;;;;;;;;;;;;;;14.43;89.95;101016.78;5075112;28;19960;-33
2022/06/09 04:43:16;;;;;;;;;;;;;;;14.49;90.10;101018.69;5075938;28;19905;-33
2022/06/09 04:45:42;;;;;;;;;;;;;;;14.48;90.85;101025.97;5078978;28;19966;-31
2022/06/09 04:48:07;;;;;;;;;;;;;;;14.46;91.66;101021.81;5074827;28;19924;-31
2022/06/09 04:50:33;;;;;;;;;;;;;;;14.41;92.39;101035.13;5073918;28;19909;-33
2022/06/09 04:52:58;;;;;;;;;;;;;;;14.34;93.36;101036.94;5072992;28;19929;-31
2022/06/09 04:55:23;;;;;;;;;;;;;;;14.32;94.13;101037.13;5071031;28;19925;-38
2022/06/09 04:57:49;;;;;;;;;;;;;;;14.34;95.27;101047.78;5057638;28;19990;-40
2022/06/09 05:00:14;;;;;;;;;;;;;;;14.31;95.98;101054.44;5050979;28;19928;-44
2022/06/09 05:02:40;;;;;;;;;;;;;;;14.23;96.63;101060.84;5052697;28;19931;-41
2022/06/09 05:05:05;;;;;;;;;;;;;;;14.23;97.05;101068.97;5058644;28;20359;-42
2022/06/09 05:07:31;;;;;;;;;;;;;;;14.18;97.34;101079.56;5051839;28;20354;-39
2022/06/09 05:09:56;;;;;;;;;;;;;;;14.17;97.78;101086.03;5052926;28;19920;-36
2022/06/09 05:12:21;;;;;;;;;;;;;;;14.13;98.38;101086.63;5053073;28;19960;-38
2022/06/09 05:14:47;;;;;;;;;;;;;;;14.10;98.94;101087.84;5052646;28;19948;-35
2022/06/09 05:17:12;;;;;;;;;;;;;;;14.07;99.37;101088.25;5052324;28;20499;-40
2022/06/09 05:19:37;;;;;;;;;;;;;;;14.01;100.00;101105.28;5052501;28;19921;-36
2022/06/09 05:22:03;;;;;;;;;;;;;;;13.95;100.00;101111.47;5052324;28;19921;-37
2022/06/09 05:24:28;;;;;;;;;;;;;;;13.93;100.00;101125.22;5053279;28;19921;-36
2022/06/09 05:26:53;;;;;;;;;;;;;;;13.87;100.00;101117.88;5054395;28;19928;-34
2022/06/09 05:29:19;;;;;;;;;;;;;;;13.84;100.00;101132.63;5051974;28;20372;-34
2022/06/09 05:31:44;;;;;;;;;;;;;;;13.76;100.00;101124.66;5052622;28;20023;-35
2022/06/09 05:34:10;;;;;;;;;;;;;;;13.69;100.00;101120.22;5051344;28;19959;-38
2022/06/09 05:36:35;;;;;;;;;;;;;;;13.68;100.00;101122.09;5052731;28;19920;-38
2022/06/09 05:47:12;;;;;;;;;;;;;;;13.55;100.00;101132.81;5053131;28;19928;-34
2022/06/09 05:49:37;;;;;;;;;;;;;;;13.53;100.00;101141.13;5056709;28;20343;-33
2022/06/09 05:52:03;;;;;;;;;;;;;;;13.49;100.00;101145.25;5063733;28;19927;-33
2022/06/09 05:54:28;;;;;;;;;;;;;;;13.49;100.00;101147.09;5069649;28;19900;-33
2022/06/09 05:56:54;;;;;;;;;;;;;;;13.48;100.00;101148.13;5074058;28;19921;-33
2022/06/09 05:59:19;;;;;;;;;;;;;;;13.46;100.00;101155.63;5074647;28;19915;-31
2022/06/09 06:01:44;;;;;;;;;;;;;;;13.49;100.00;101160.63;5073665;28;19920;-31
2022/06/09 06:04:10;;;;;;;;;;;;;;;13.54;100.00;101163.59;5075993;28;19928;-32
2022/06/09 06:06:35;;;;;;;;;;;;;;;13.59;100.00;101167.38;5076489;28;19908;-30
2022/06/09 06:09:09;;;;;;;;;;;;;;;13.63;100.00;101170.53;5075716;28;19919;-30
2022/06/09 06:11:35;;;;;;;;;;;;;;;13.70;100.00;101173.31;5075957;28;19921;-30
2022/06/09 06:14:00;;;;;;;;;;;;;;;13.75;100.00;101182.50;5075603;28;19976;-32
2022/06/09 06:16:26;;;;;;;;;;;;;;;13.79;100.00;101186.47;5075622;28;19976;-31
2022/06/09 06:18:51;;;;;;;;;;;;;;;13.75;100.00;101179.81;5076159;28;19919;-31
2022/06/09 06:21:17;;;;;;;;;;;;;;;13.77;100.00;101185.88;5075323;28;19932;-32
2022/06/09 06:23:42;;;;;;;;;;;;;;;13.76;100.00;101183.34;5075266;28;19912;-30
2022/06/09 06:26:07;;;;;;;;;;;;;;;13.88;100.00;101192.63;5075330;28;19911;-31
2022/06/09 06:28:33;;;;;;;;;;;;;;;14.08;100.00;101200.03;5075645;28;19927;-32
2022/06/09 06:30:58;;;;;;;;;;;;;;;14.19;100.00;101200.34;5076106;28;19921;-33
2022/06/09 06:33:23;;;;;;;;;;;;;;;14.23;100.00;101200.78;5074856;28;20015;-32
2022/06/09 06:35:48;;;;;;;;;;;;;;;14.31;100.00;101202.50;5075421;28;19964;-32
2022/06/09 06:38:15;;;;;;;;;;;;;;;14.65;100.00;101199.00;5075915;28;19909;-32
2022/06/09 06:40:40;;;;;;;;;;;;;;;15.22;100.00;101213.19;5076041;28;19932;-33
2022/06/09 06:43:05;;;;;;;;;;;;;;;15.71;100.00;101220.25;5076103;28;19909;-33
2022/06/09 06:45:31;;;;;;;;;;;;;;;16.06;100.00;101217.34;5076035;28;19935;-32
2022/06/09 06:47:56;;;;;;;;;;;;;;;16.48;100.00;101226.09;5075920;28;19909;-33
2022/06/09 06:50:21;;;;;;;;;;;;;;;16.94;100.00;101225.19;5075735;28;20023;-32
2022/06/09 06:52:47;;;;;;;;;;;;;;;17.36;94.15;101233.78;5075778;28;19909;-34
2022/06/09 06:55:13;;;;;;;;;;;;;;;17.62;90.46;101228.19;5075725;28;19909;-33
2022/06/09 06:57:38;;;;;;;;;;;;;;;17.73;84.84;101235.63;5075697;28;19951;-33
2022/06/09 07:00:04;;;;;;;;;;;;;;;17.80;81.36;101246.53;5075747;28;19937;-32
2022/06/09 07:02:30;;;;;;;;;;;;;;;18.03;82.29;101240.47;5074718;28;20007;-33
2022/06/09 07:04:55;;;;;;;;;;;;;;;18.07;79.21;101236.25;5075426;28;19927;-32
2022/06/09 07:07:20;;;;;;;;;;;;;;;18.34;81.61;101239.56;5075428;28;19919;-33
2022/06/09 07:09:45;;;;;;;;;;;;;;;18.46;76.47;101245.16;5075456;28;19925;-32
2022/06/09 07:12:11;;;;;;;;;;;;;;;18.40;77.75;101251.47;5075591;28;19935;-32
2022/06/09 07:14:36;;;;;;;;;;;;;;;18.45;76.54;101246.19;5074473;28;20122;-34
2022/06/09 07:17:01;;;;;;;;;;;;;;;18.33;76.24;101256.16;5075479;28;19936;-34
2022/06/09 07:19:26;;;;;;;;;;;;;;;18.26;74.71;101255.38;5074174;28;19956;-33
2022/06/09 07:21:52;;;;;;;;;;;;;;;18.19;74.16;101260.88;5075720;28;19921;-34
2022/06/09 07:24:17;;;;;;;;;;;;;;;18.17;76.86;101271.19;5075310;28;19944;-33
2022/06/09 07:26:42;;;;;;;;;;;;;;;18.51;75.81;101269.84;5075328;28;19921;-34
2022/06/09 07:29:07;;;;;;;;;;;;;;;19.00;74.76;101275.44;5074405;28;19947;-32
2022/06/09 07:31:33;;;;;;;;;;;;;;;19.14;72.13;101281.56;5075226;28;19912;-33
2022/06/09 07:33:58;;;;;;;;;;;;;;;19.25;69.17;101280.81;5075024;28;19919;-33
2022/06/09 07:36:24;;;;;;;;;;;;;;;19.16;67.53;101287.63;5075169;28;19976;-33
2022/06/09 07:38:49;;;;;;;;;;;;;;;18.72;71.25;101292.25;5075199;28;19908;-33
2022/06/09 07:41:14;;;;;;;;;;;;;;;18.40;73.34;101298.66;5074949;28;19909;-33
2022/06/09 07:43:39;;;;;;;;;;;;;;;18.10;73.18;101306.63;5074906;28;19959;-32
2022/06/09 07:46:05;;;;;;;;;;;;;;;18.14;72.29;101307.88;5074451;28;19996;-33
2022/06/09 07:48:30;;;;;;;;;;;;;;;18.28;75.15;101302.31;5075242;28;19920;-33
2022/06/09 07:50:55;;;;;;;;;;;;;;;18.99;72.53;101310.06;5075184;28;19924;-33
2022/06/09 07:53:20;;;;;;;;;;;;;;;19.43;68.28;101313.56;5074050;28;19920;-33
2022/06/09 07:55:46;;;;;;;;;;;;;;;19.72;70.13;101319.28;5074938;28;19973;-33
2022/06/09 07:58:12;;;;;;;;;;;;;;;20.26;68.21;101322.91;5075020;28;19909;-32
2022/06/09 08:00:38;;;;;;;;;;;;;;;20.44;68.35;101321.97;5075067;28;19909;-33
2022/06/09 08:03:04;;;;;;;;;;;;;;;20.78;62.33;101327.75;5075130;28;19979;-32
2022/06/09 08:05:29;;;;;;;;;;;;;;;20.44;61.97;101340.28;5074821;28;19943;-34
2022/06/09 08:07:54;;;;;;;;;;;;;;;20.04;62.14;101343.66;5074998;28;19921;-34
2022/06/09 08:10:21;;;;;;;;;;;;;;;19.64;63.44;101333.22;5074114;28;19935;-33
2022/06/09 08:12:47;;;;;;;;;;;;;;;19.08;65.46;101340.59;5075037;28;19947;-33
2022/06/09 08:15:12;;;;;;;;;;;;;;;18.80;67.00;101341.09;5074843;28;19904;-31
2022/06/09 08:17:38;;;;;;;;;;;;;;;18.93;69.06;101351.91;5074588;28;19917;-32
2022/06/09 08:20:03;;;;;;;;;;;;;;;19.23;65.58;101354.72;5074723;28;19909;-32
2022/06/09 08:22:29;;;;;;;;;;;;;;;19.51;63.79;101356.09;5074601;28;19920;-31
2022/06/09 08:24:55;;;;;;;;;;;;;;;19.55;64.64;101356.44;5075437;28;19921;-33
2022/06/09 08:27:20;;;;;;;;;;;;;;;19.62;66.12;101359.94;5078477;28;19917;-33
2022/06/09 08:29:46;;;;;;;;;;;;;;;20.01;64.77;101357.75;5078893;28;19992;-34
2022/06/09 08:32:11;;;;;;;;;;;;;;;21.08;64.93;101365.91;5078806;28;19940;-34
2022/06/09 08:34:36;;;;;;;;;;;;;;;21.95;60.50;101373.22;5078754;28;19923;-34
2022/06/09 08:37:01;;;;;;;;;;;;;;;22.64;57.23;101388.72;5078422;28;19909;-34
2022/06/09 08:39:26;;;;;;;;;;;;;;;23.59;55.13;101381.34;5078081;28;19920;-32
2022/06/09 08:41:52;;;;;;;;;;;;;;;24.50;51.55;101383.47;5077928;28;19936;-32
2022/06/09 08:44:21;;;;;;;;;;;;;;;24.09;51.52;101386.63;5078167;28;19939;-33
2022/06/09 08:46:55;;;;;;;;;;;;;;;23.79;51.79;101395.34;5076862;28;19905;-34
2022/06/09 08:49:31;;;;;;;;;;;;;;;23.49;47.72;101394.97;5075418;28;20126;-34
2022/06/09 08:52:02;;;;;;;;;;;;;;;23.49;51.13;101400.47;5076066;28;19920;-34
2022/06/09 08:54:29;;;;;;;;;;;;;;;23.23;50.32;101397.34;5076797;28;19905;-33
2022/06/09 08:56:54;;;;;;;;;;;;;;;24.09;47.30;101399.53;5077997;28;19948;-33
2022/06/09 08:59:20;;;;;;;;;;;;;;;24.65;46.35;101397.34;5077243;28;19931;-33
2022/06/09 09:01:53;;;;;;;;;;;;;;;24.75;46.74;101397.44;5076347;28;19931;-33
2022/06/09 09:04:22;;;;;;;;;;;;;;;24.38;48.47;101393.75;5074956;28;19924;-33
2022/06/09 09:06:47;;;;;;;;;;;;;;;24.78;48.18;101397.97;5075416;28;19952;-33
2022/06/09 09:09:12;;;;;;;;;;;;;;;25.31;46.27;101401.69;5076812;28;19905;-33
2022/06/09 09:11:55;;;;;;;;;;;;;;;25.77;47.25;101405.47;5076515;28;19920;-33
2022/06/09 09:14:33;;;;;;;;;;;;;;;26.01;44.86;101405.88;5075156;28;19949;-33
2022/06/09 09:17:03;;;;;;;;;;;;;;;26.08;43.26;101402.00;5075076;28;20501;-34
2022/06/09 09:19:56;;;;;;;;;;;;;;;26.68;43.68;101411.50;5074869;28;19920;-34
2022/06/09 09:22:28;;;;;;;;;;;;;;;26.86;42.90;101418.41;5076377;28;20000;-33
2022/06/09 09:24:57;;;;;;;;;;;;;;;26.48;42.23;101424.13;5074837;28;19992;-34
2022/06/09 09:27:29;;;;;;;;;;;;;;;26.54;45.12;101427.78;5076358;28;20216;-33
2022/06/09 09:30:04;;;;;;;;;;;;;;;26.86;44.71;101424.75;5074601;28;19995;-33
2022/06/09 09:32:29;;;;;;;;;;;;;;;26.59;41.84;101429.69;5075063;28;19931;-34
2022/06/09 09:34:55;;;;;;;;;;;;;;;26.40;42.74;101441.25;5073029;28;19920;-33
2022/06/09 09:37:37;;;;;;;;;;;;;;;26.09;42.52;101436.75;5073235;28;19905;-34
2022/06/09 09:40:11;;;;;;;;;;;;;;;26.21;44.26;101440.13;5075093;28;19921;-33
2022/06/09 09:42:38;;;;;;;;;;;;;;;26.45;41.75;101432.97;5076038;28;19916;-33
2022/06/09 09:45:09;;;;;;;;;;;;;;;26.74;41.87;101443.50;5075444;28;19923;-32
2022/06/09 09:47:42;;;;;;;;;;;;;;;26.25;43.73;101452.25;5074980;28;20008;-33
2022/06/09 09:50:14;;;;;;;;;;;;;;;25.39;43.36;101451.59;5075501;28;19933;-34
2022/06/09 09:52:39;;;;;;;;;;;;;;;25.36;45.18;101462.34;5075238;28;19917;-32
2022/06/09 09:55:25;;;;;;;;;;;;;;;24.97;44.28;101465.34;5076271;28;19928;-33
2022/06/09 09:57:59;;;;;;;;;;;;;;;25.31;43.12;101459.56;5075657;28;20284;-33
2022/06/09 10:00:27;;;;;;;;;;;;;;;25.67;44.40;101473.50;5073882;28;20014;-31
2022/06/09 10:08:39;;;;;;;;;;;;;;;26.57;41.85;101473.31;5075798;28;19927;-33
2022/06/09 10:14:03;;;;;;;;;;;;;;;27.14;41.62;101495.16;5075054;28;19959;-33
2022/06/09 10:16:29;;;;;;;;;;;;;;;27.10;41.85;101493.25;5074397;28;19939;-31
2022/06/09 10:18:55;;;;;;;;;;;;;;;27.24;40.56;101488.81;5074565;28;19921;-33
2022/06/09 10:21:20;;;;;;;;;;;;;;;27.00;41.33;101488.53;5074941;28;19960;-33
2022/06/09 10:23:45;;;;;;;;;;;;;;;26.93;42.20;101497.09;5074999;28;19908;-34
2022/06/09 10:26:12;;;;;;;;;;;;;;;26.68;40.21;101502.59;5074144;28;19917;-34
2022/06/09 10:28:41;;;;;;;;;;;;;;;26.72;41.88;101506.47;5073536;28;19917;-33
2022/06/09 10:31:26;;;;;;;;;;;;;;;26.70;42.84;101504.00;5074448;28;19908;-32
2022/06/09 10:34:08;;;;;;;;;;;;;;;26.88;40.54;101516.44;5074596;28;19913;-32
2022/06/09 10:36:37;;;;;;;;;;;;;;;26.87;40.92;101520.28;5074611;28;19917;-32
2022/06/09 10:39:05;;;;;;;;;;;;;;;27.25;41.08;101515.38;5074776;28;19920;-33
2022/06/09 10:41:40;;;;;;;;;;;;;;;27.38;39.69;101522.22;5075452;28;19913;-34
2022/06/09 10:44:11;;;;;;;;;;;;;;;27.41;41.72;101530.00;5074491;28;19916;-34
2022/06/09 10:55:24;;;;;;;;;;;;;;;27.03;42.13;101540.47;5074560;28;19932;-33
2022/06/09 10:58:05;;;;;;;;;;;;;;;26.71;42.51;101537.94;5074591;28;19913;-32
2022/06/09 11:00:38;;;;;;;;;;;;;;;26.57;41.38;101536.81;5074199;28;19931;-34
2022/06/09 11:03:09;;;;;;;;;;;;;;;26.81;39.88;101537.16;5073987;28;19924;-33
2022/06/09 11:05:46;;;;;;;;;;;;;;;26.86;41.57;101532.47;5074861;28;19912;-33
2022/06/09 11:08:20;;;;;;;;;;;;;;;27.24;39.67;101546.84;5072943;28;19931;-33
2022/06/09 11:10:55;;;;;;;;;;;;;;;27.23;40.53;101539.69;5053575;28;19964;-34
2022/06/09 11:13:38;;;;;;;;;;;;;;;27.52;39.38;101547.41;5054289;28;20356;-32
2022/06/09 11:16:09;;;;;;;;;;;;;;;27.42;39.20;101547.41;5063548;28;19928;-33
2022/06/09 11:18:43;;;;;;;;;;;;;;;27.52;40.30;101553.75;5072763;28;20102;-33
2022/06/09 11:21:20;;;;;;;;;;;;;;;27.12;39.80;101560.06;5074245;28;19909;-34
2022/06/09 11:23:48;;;;;;;;;;;;;;;27.03;40.23;101551.50;5074914;28;19996;-32
2022/06/09 11:26:23;;;;;;;;;;;;;;;27.22;39.54;101553.75;5075739;28;19913;-33
2022/06/09 11:29:14;;;;;;;;;;;;;;;27.32;38.29;101554.59;5075623;28;19913;-31
2022/06/09 11:31:49;;;;;;;;;;;;;;;27.25;38.06;101551.28;5074993;28;19909;-33
2022/06/09 11:34:32;;;;;;;;;;;;;;;26.84;40.41;101553.16;5072554;28;19964;-33
2022/06/09 11:37:10;;;;;;;;;;;;;;;26.74;41.68;101553.97;5073289;28;19960;-34
2022/06/09 11:39:38;;;;;;;;;;;;;;;27.09;38.89;101552.34;5062953;28;19925;-34
2022/06/09 11:42:10;;;;;;;;;;;;;;;26.82;38.84;101550.66;5075452;28;19931;-32
2022/06/09 11:44:37;;;;;;;;;;;;;;;27.00;38.84;101556.78;5064437;28;19944;-34
2022/06/09 11:47:05;;;;;;;;;;;;;;;26.71;39.47;101557.28;5058553;28;19976;-32
2022/06/09 11:49:36;;;;;;;;;;;;;;;27.07;40.04;101562.88;5055309;28;19933;-33
2022/06/09 11:52:03;;;;;;;;;;;;;;;26.97;40.74;101563.69;5058337;28;19931;-34
2022/06/09 11:54:33;;;;;;;;;;;;;;;26.68;40.11;101549.56;5072343;28;19928;-34
2022/06/09 11:57:18;;;;;;;;;;;;;;;26.46;38.97;101558.84;5058663;28;19917;-33
2022/06/09 12:00:04;;;;;;;;;;;;;;;26.32;38.90;101557.69;5071422;28;19917;-33
2022/06/09 12:02:32;;;;;;;;;;;;;;;26.20;40.99;101555.16;5078284;28;19921;-33
2022/06/09 12:04:58;;;;;;;;;;;;;;;25.97;38.11;101553.69;5078170;28;19985;-32
2022/06/09 12:07:23;;;;;;;;;;;;;;;26.47;38.91;101554.16;5078333;28;20008;-33
2022/06/09 12:09:51;;;;;;;;;;;;;;;26.70;39.46;101558.41;5078789;28;19992;-34
2022/06/09 12:12:49;;;;;;;;;;;;;;;26.51;37.84;101566.31;5078729;28;19947;-33
2022/06/09 12:15:14;;;;;;;;;;;;;;;27.10;37.31;101565.06;5076887;28;19905;-33
2022/06/09 12:17:54;;;;;;;;;;;;;;;27.04;37.09;101563.41;5078607;28;19953;-33
2022/06/09 12:20:29;;;;;;;;;;;;;;;26.82;35.71;101575.53;5077156;28;19925;-34
2022/06/09 12:23:03;;;;;;;;;;;;;;;26.98;36.07;101570.03;5077219;28;19929;-33
2022/06/09 12:25:33;;;;;;;;;;;;;;;26.60;35.53;101570.25;5078036;28;19943;-33
2022/06/09 12:27:58;;;;;;;;;;;;;;;26.71;35.57;101565.56;5078052;28;19928;-34
2022/06/09 12:30:26;;;;;;;;;;;;;;;25.83;37.09;101574.53;5060711;28;19916;-33
2022/06/09 12:33:10;;;;;;;;;;;;;;;26.27;36.00;101575.03;5078093;28;19963;-34
2022/06/09 12:35:39;;;;;;;;;;;;;;;26.81;36.51;101576.63;5077665;28;19912;-35
2022/06/09 12:38:05;;;;;;;;;;;;;;;26.98;33.91;101578.31;5076958;28;19909;-33
2022/06/09 12:40:42;;;;;;;;;;;;;;;26.80;34.12;101579.66;5076265;28;19998;-34
2022/06/09 12:43:15;;;;;;;;;;;;;;;26.85;32.58;101583.25;5076466;28;19921;-34
2022/06/09 12:45:40;;;;;;;;;;;;;;;26.85;34.16;101583.25;5076917;28;19909;-33
2022/06/09 12:48:13;;;;;;;;;;;;;;;27.21;35.23;101588.03;5077207;28;19986;-34
2022/06/09 12:50:40;;;;;;;;;;;;;;;27.32;33.91;101598.00;5077263;28;19925;-34
2022/06/09 12:53:07;;;;;;;;;;;;;;;27.57;33.58;101599.94;5077152;28;19918;-34
2022/06/09 12:55:34;;;;;;;;;;;;;;;27.48;31.39;101601.56;5077320;28;19913;-31
2022/06/09 12:58:04;;;;;;;;;;;;;;;27.20;32.82;101594.66;5077170;28;19915;-32
2022/06/09 13:00:33;;;;;;;;;;;;;;;26.91;34.03;101597.94;5076134;28;19908;-33
2022/06/09 13:02:58;;;;;;;;;;;;;;;26.85;34.28;101605.34;5064751;28;19929;-32
2022/06/09 13:05:32;;;;;;;;;;;;;;;26.91;35.30;101604.28;5076583;28;19948;-33